sensor_id;sensor_type;location;lat;lon;timestamp;P1;durP1;ratioP1;P2;durP2;ratioP2
41253;SDS011;26987;59.928;30.306;2022-09-13T00:01:38;11.82;;;6.40;;
41253;SDS011;26987;59.928;30.306;2022-09-13T00:04:06;15.38;;;6.45;;
41253;SDS011;26987;59.928;30.306;2022-09-13T00:06:35;15.60;;;6.72;;
41253;SDS011;26987;59.928;30.306;2022-09-13T00:09:04;19.15;;;6.45;;
41253;SDS011;26987;59.928;30.306;2022-09-13T00:11:32;18.65;;;7.22;;
41253;SDS011;26987;59.928;30.306;2022-09-13T00:14:00;13.70;;;6.95;;
41253;SDS011;26987;59.928;30.306;2022-09-13T00:16:29;22.75;;;6.85;;
41253;SDS011;26987;59.928;30.306;2022-09-13T00:18:58;15.02;;;7.07;;
41253;SDS011;26987;59.928;30.306;2022-09-13T00:21:26;16.90;;;7.22;;
41253;SDS011;26987;59.928;30.306;2022-09-13T00:23:54;24.50;;;8.90;;
41253;SDS011;26987;59.928;30.306;2022-09-13T00:26:25;24.27;;;8.80;;
41253;SDS011;26987;59.928;30.306;2022-09-13T00:28:54;22.08;;;9.55;;
41253;SDS011;26987;59.928;30.306;2022-09-13T00:31:24;22.45;;;9.38;;
41253;SDS011;26987;59.928;30.306;2022-09-13T00:33:54;24.95;;;10.23;;
41253;SDS011;26987;59.928;30.306;2022-09-13T00:36:23;23.35;;;10.27;;
41253;SDS011;26987;59.928;30.306;2022-09-13T00:38:51;19.38;;;10.00;;
41253;SDS011;26987;59.928;30.306;2022-09-13T00:41:19;26.55;;;9.35;;
41253;SDS011;26987;59.928;30.306;2022-09-13T00:43:49;20.60;;;9.75;;
41253;SDS011;26987;59.928;30.306;2022-09-13T00:46:21;25.65;;;9.13;;
41253;SDS011;26987;59.928;30.306;2022-09-13T00:48:56;19.75;;;9.20;;
41253;SDS011;26987;59.928;30.306;2022-09-13T00:51:30;25.60;;;9.07;;
41253;SDS011;26987;59.928;30.306;2022-09-13T00:53:58;23.45;;;8.55;;
41253;SDS011;26987;59.928;30.306;2022-09-13T00:56:29;21.75;;;8.80;;
41253;SDS011;26987;59.928;30.306;2022-09-13T00:59:03;16.80;;;8.25;;
41253;SDS011;26987;59.928;30.306;2022-09-13T01:04:07;18.98;;;8.68;;
41253;SDS011;26987;59.928;30.306;2022-09-13T01:06:35;19.77;;;8.13;;
41253;SDS011;26987;59.928;30.306;2022-09-13T01:09:05;23.90;;;8.35;;
41253;SDS011;26987;59.928;30.306;2022-09-13T01:11:37;20.67;;;8.77;;
41253;SDS011;26987;59.928;30.306;2022-09-13T01:14:10;15.98;;;7.97;;
41253;SDS011;26987;59.928;30.306;2022-09-13T01:16:38;17.40;;;7.70;;
41253;SDS011;26987;59.928;30.306;2022-09-13T01:19:06;20.70;;;8.02;;
41253;SDS011;26987;59.928;30.306;2022-09-13T01:24:48;17.52;;;7.95;;
41253;SDS011;26987;59.928;30.306;2022-09-13T01:27:40;19.55;;;8.02;;
41253;SDS011;26987;59.928;30.306;2022-09-13T01:30:24;16.63;;;7.43;;
41253;SDS011;26987;59.928;30.306;2022-09-13T01:33:02;13.40;;;7.30;;
41253;SDS011;26987;59.928;30.306;2022-09-13T01:35:45;15.23;;;6.90;;
41253;SDS011;26987;59.928;30.306;2022-09-13T01:38:37;16.42;;;6.43;;
41253;SDS011;26987;59.928;30.306;2022-09-13T01:41:19;10.57;;;6.78;;
41253;SDS011;26987;59.928;30.306;2022-09-13T01:44:09;11.57;;;5.90;;
41253;SDS011;26987;59.928;30.306;2022-09-13T01:46:47;9.48;;;4.95;;
41253;SDS011;26987;59.928;30.306;2022-09-13T01:49:23;10.43;;;5.47;;
41253;SDS011;26987;59.928;30.306;2022-09-13T01:51:59;9.85;;;4.60;;
41253;SDS011;26987;59.928;30.306;2022-09-13T01:54:35;12.23;;;5.13;;
41253;SDS011;26987;59.928;30.306;2022-09-13T01:57:11;9.05;;;5.10;;
41253;SDS011;26987;59.928;30.306;2022-09-13T01:59:45;14.15;;;5.15;;
41253;SDS011;26987;59.928;30.306;2022-09-13T02:02:19;9.60;;;4.93;;
41253;SDS011;26987;59.928;30.306;2022-09-13T02:04:54;13.77;;;4.97;;
41253;SDS011;26987;59.928;30.306;2022-09-13T02:07:28;10.95;;;4.93;;
41253;SDS011;26987;59.928;30.306;2022-09-13T02:10:09;10.95;;;5.43;;
41253;SDS011;26987;59.928;30.306;2022-09-13T02:12:42;11.55;;;5.43;;
41253;SDS011;26987;59.928;30.306;2022-09-13T02:15:14;12.93;;;5.35;;
41253;SDS011;26987;59.928;30.306;2022-09-13T02:17:45;13.43;;;5.13;;
41253;SDS011;26987;59.928;30.306;2022-09-13T02:20:18;14.93;;;6.38;;
41253;SDS011;26987;59.928;30.306;2022-09-13T02:22:51;19.83;;;6.53;;
41253;SDS011;26987;59.928;30.306;2022-09-13T02:25:22;16.90;;;6.25;;
41253;SDS011;26987;59.928;30.306;2022-09-13T02:27:54;16.92;;;7.25;;
41253;SDS011;26987;59.928;30.306;2022-09-13T02:30:26;20.45;;;8.32;;
41253;SDS011;26987;59.928;30.306;2022-09-13T02:33:00;17.58;;;8.30;;
41253;SDS011;26987;59.928;30.306;2022-09-13T02:35:31;22.40;;;9.05;;
41253;SDS011;26987;59.928;30.306;2022-09-13T02:38:03;31.70;;;11.90;;
41253;SDS011;26987;59.928;30.306;2022-09-13T02:40:36;30.85;;;10.68;;
41253;SDS011;26987;59.928;30.306;2022-09-13T02:43:09;23.65;;;9.48;;
41253;SDS011;26987;59.928;30.306;2022-09-13T02:45:43;22.88;;;9.48;;
41253;SDS011;26987;59.928;30.306;2022-09-13T02:48:18;23.90;;;10.35;;
41253;SDS011;26987;59.928;30.306;2022-09-13T02:50:53;16.52;;;8.57;;
41253;SDS011;26987;59.928;30.306;2022-09-13T02:53:27;22.67;;;7.10;;
41253;SDS011;26987;59.928;30.306;2022-09-13T02:56:03;15.70;;;6.10;;
41253;SDS011;26987;59.928;30.306;2022-09-13T02:58:48;11.85;;;6.53;;
41253;SDS011;26987;59.928;30.306;2022-09-13T03:01:23;15.80;;;6.10;;
41253;SDS011;26987;59.928;30.306;2022-09-13T03:03:52;16.35;;;5.72;;
41253;SDS011;26987;59.928;30.306;2022-09-13T03:06:21;15.05;;;6.18;;
41253;SDS011;26987;59.928;30.306;2022-09-13T03:08:50;23.10;;;7.97;;
41253;SDS011;26987;59.928;30.306;2022-09-13T03:11:22;15.85;;;6.40;;
41253;SDS011;26987;59.928;30.306;2022-09-13T03:14:03;14.88;;;6.68;;
41253;SDS011;26987;59.928;30.306;2022-09-13T03:16:48;12.30;;;5.82;;
41253;SDS011;26987;59.928;30.306;2022-09-13T03:22:11;9.40;;;4.70;;
41253;SDS011;26987;59.928;30.306;2022-09-13T03:24:56;9.48;;;4.07;;
41253;SDS011;26987;59.928;30.306;2022-09-13T03:27:33;6.57;;;3.90;;
41253;SDS011;26987;59.928;30.306;2022-09-13T03:30:08;7.10;;;4.43;;
41253;SDS011;26987;59.928;30.306;2022-09-13T03:32:40;8.57;;;4.07;;
41253;SDS011;26987;59.928;30.306;2022-09-13T03:35:21;10.70;;;4.10;;
41253;SDS011;26987;59.928;30.306;2022-09-13T03:37:55;12.90;;;4.90;;
41253;SDS011;26987;59.928;30.306;2022-09-13T03:40:33;7.57;;;4.05;;
41253;SDS011;26987;59.928;30.306;2022-09-13T03:43:06;10.55;;;4.43;;
41253;SDS011;26987;59.928;30.306;2022-09-13T03:45:40;10.27;;;4.03;;
41253;SDS011;26987;59.928;30.306;2022-09-13T03:48:11;8.68;;;4.05;;
41253;SDS011;26987;59.928;30.306;2022-09-13T03:50:42;10.02;;;4.15;;
41253;SDS011;26987;59.928;30.306;2022-09-13T03:53:17;8.02;;;3.63;;
41253;SDS011;26987;59.928;30.306;2022-09-13T03:55:49;10.68;;;4.32;;
41253;SDS011;26987;59.928;30.306;2022-09-13T03:58:17;7.75;;;4.22;;
41253;SDS011;26987;59.928;30.306;2022-09-13T04:00:46;9.10;;;4.00;;
41253;SDS011;26987;59.928;30.306;2022-09-13T04:03:15;5.72;;;3.88;;
41253;SDS011;26987;59.928;30.306;2022-09-13T04:05:44;7.50;;;4.05;;
41253;SDS011;26987;59.928;30.306;2022-09-13T04:08:13;8.02;;;3.83;;
41253;SDS011;26987;59.928;30.306;2022-09-13T04:10:40;13.95;;;5.72;;
41253;SDS011;26987;59.928;30.306;2022-09-13T04:13:08;11.95;;;5.32;;
41253;SDS011;26987;59.928;30.306;2022-09-13T04:15:36;9.68;;;5.03;;
41253;SDS011;26987;59.928;30.306;2022-09-13T04:18:04;10.45;;;5.30;;
41253;SDS011;26987;59.928;30.306;2022-09-13T04:20:34;9.70;;;5.35;;
41253;SDS011;26987;59.928;30.306;2022-09-13T04:23:03;10.07;;;4.75;;
41253;SDS011;26987;59.928;30.306;2022-09-13T04:25:31;8.38;;;4.68;;
41253;SDS011;26987;59.928;30.306;2022-09-13T04:27:59;8.45;;;4.85;;
41253;SDS011;26987;59.928;30.306;2022-09-13T04:30:27;13.77;;;6.18;;
41253;SDS011;26987;59.928;30.306;2022-09-13T04:32:55;9.15;;;4.32;;
41253;SDS011;26987;59.928;30.306;2022-09-13T04:35:24;10.23;;;4.05;;
41253;SDS011;26987;59.928;30.306;2022-09-13T04:37:53;8.25;;;3.75;;
41253;SDS011;26987;59.928;30.306;2022-09-13T04:40:23;9.70;;;5.20;;
41253;SDS011;26987;59.928;30.306;2022-09-13T04:42:51;8.65;;;3.60;;
41253;SDS011;26987;59.928;30.306;2022-09-13T04:45:19;9.15;;;3.92;;
41253;SDS011;26987;59.928;30.306;2022-09-13T04:47:49;6.15;;;3.67;;
41253;SDS011;26987;59.928;30.306;2022-09-13T04:50:18;7.82;;;4.25;;
41253;SDS011;26987;59.928;30.306;2022-09-13T04:52:49;7.05;;;3.35;;
41253;SDS011;26987;59.928;30.306;2022-09-13T04:55:17;9.15;;;3.70;;
41253;SDS011;26987;59.928;30.306;2022-09-13T04:57:46;8.90;;;4.28;;
41253;SDS011;26987;59.928;30.306;2022-09-13T05:00:14;8.38;;;3.90;;
41253;SDS011;26987;59.928;30.306;2022-09-13T05:02:42;7.05;;;3.63;;
41253;SDS011;26987;59.928;30.306;2022-09-13T05:05:10;16.95;;;4.03;;
41253;SDS011;26987;59.928;30.306;2022-09-13T05:07:38;7.97;;;3.90;;
41253;SDS011;26987;59.928;30.306;2022-09-13T05:10:06;6.97;;;3.75;;
41253;SDS011;26987;59.928;30.306;2022-09-13T05:12:35;7.35;;;4.00;;
41253;SDS011;26987;59.928;30.306;2022-09-13T05:15:05;10.40;;;3.90;;
41253;SDS011;26987;59.928;30.306;2022-09-13T05:17:33;9.85;;;4.10;;
41253;SDS011;26987;59.928;30.306;2022-09-13T05:20:01;9.55;;;3.90;;
41253;SDS011;26987;59.928;30.306;2022-09-13T05:22:30;8.55;;;3.90;;
41253;SDS011;26987;59.928;30.306;2022-09-13T05:24:58;5.60;;;3.25;;
41253;SDS011;26987;59.928;30.306;2022-09-13T05:27:26;7.60;;;3.80;;
41253;SDS011;26987;59.928;30.306;2022-09-13T05:29:54;5.53;;;3.40;;
41253;SDS011;26987;59.928;30.306;2022-09-13T05:32:23;6.35;;;3.55;;
41253;SDS011;26987;59.928;30.306;2022-09-13T05:34:51;10.88;;;3.40;;
41253;SDS011;26987;59.928;30.306;2022-09-13T05:37:19;9.05;;;4.32;;
41253;SDS011;26987;59.928;30.306;2022-09-13T05:39:47;7.35;;;4.43;;
41253;SDS011;26987;59.928;30.306;2022-09-13T05:42:14;7.38;;;4.13;;
41253;SDS011;26987;59.928;30.306;2022-09-13T05:44:42;7.35;;;3.88;;
41253;SDS011;26987;59.928;30.306;2022-09-13T05:47:11;6.00;;;3.85;;
41253;SDS011;26987;59.928;30.306;2022-09-13T05:49:41;9.52;;;4.32;;
41253;SDS011;26987;59.928;30.306;2022-09-13T05:52:09;9.70;;;4.22;;
41253;SDS011;26987;59.928;30.306;2022-09-13T05:54:37;6.68;;;4.32;;
41253;SDS011;26987;59.928;30.306;2022-09-13T05:57:05;8.40;;;3.53;;
41253;SDS011;26987;59.928;30.306;2022-09-13T05:59:33;7.25;;;4.28;;
41253;SDS011;26987;59.928;30.306;2022-09-13T06:02:01;8.77;;;4.00;;
41253;SDS011;26987;59.928;30.306;2022-09-13T06:04:29;9.35;;;4.22;;
41253;SDS011;26987;59.928;30.306;2022-09-13T06:06:58;9.13;;;4.07;;
41253;SDS011;26987;59.928;30.306;2022-09-13T06:09:26;12.00;;;3.88;;
41253;SDS011;26987;59.928;30.306;2022-09-13T06:11:55;10.88;;;4.50;;
41253;SDS011;26987;59.928;30.306;2022-09-13T06:14:23;5.50;;;3.30;;
41253;SDS011;26987;59.928;30.306;2022-09-13T06:16:51;10.05;;;4.15;;
41253;SDS011;26987;59.928;30.306;2022-09-13T06:19:19;7.10;;;3.75;;
41253;SDS011;26987;59.928;30.306;2022-09-13T06:21:47;12.95;;;4.70;;
41253;SDS011;26987;59.928;30.306;2022-09-13T06:24:16;12.60;;;3.95;;
41253;SDS011;26987;59.928;30.306;2022-09-13T06:26:44;7.70;;;3.33;;
41253;SDS011;26987;59.928;30.306;2022-09-13T06:29:12;15.88;;;4.53;;
41253;SDS011;26987;59.928;30.306;2022-09-13T06:31:40;9.77;;;4.50;;
41253;SDS011;26987;59.928;30.306;2022-09-13T06:34:10;12.77;;;4.75;;
41253;SDS011;26987;59.928;30.306;2022-09-13T06:36:39;8.02;;;3.42;;
41253;SDS011;26987;59.928;30.306;2022-09-13T06:39:07;13.48;;;4.20;;
41253;SDS011;26987;59.928;30.306;2022-09-13T06:41:36;8.05;;;3.97;;
41253;SDS011;26987;59.928;30.306;2022-09-13T06:44:04;6.63;;;3.85;;
41253;SDS011;26987;59.928;30.306;2022-09-13T06:46:33;11.70;;;3.90;;
41253;SDS011;26987;59.928;30.306;2022-09-13T06:49:02;11.38;;;4.13;;
41253;SDS011;26987;59.928;30.306;2022-09-13T06:51:32;9.68;;;3.83;;
41253;SDS011;26987;59.928;30.306;2022-09-13T06:54:01;8.10;;;4.03;;
41253;SDS011;26987;59.928;30.306;2022-09-13T06:56:30;11.60;;;3.95;;
41253;SDS011;26987;59.928;30.306;2022-09-13T06:59:01;19.00;;;4.70;;
41253;SDS011;26987;59.928;30.306;2022-09-13T07:01:31;13.93;;;4.28;;
41253;SDS011;26987;59.928;30.306;2022-09-13T07:04:01;20.75;;;4.70;;
41253;SDS011;26987;59.928;30.306;2022-09-13T07:06:31;15.77;;;4.35;;
41253;SDS011;26987;59.928;30.306;2022-09-13T07:09:00;19.63;;;3.75;;
41253;SDS011;26987;59.928;30.306;2022-09-13T07:11:31;9.60;;;3.33;;
41253;SDS011;26987;59.928;30.306;2022-09-13T07:14:01;6.85;;;3.55;;
41253;SDS011;26987;59.928;30.306;2022-09-13T07:16:30;10.20;;;3.53;;
41253;SDS011;26987;59.928;30.306;2022-09-13T07:18:59;13.25;;;3.58;;
41253;SDS011;26987;59.928;30.306;2022-09-13T07:21:30;11.27;;;3.67;;
41253;SDS011;26987;59.928;30.306;2022-09-13T07:23:59;8.15;;;3.75;;
41253;SDS011;26987;59.928;30.306;2022-09-13T07:26:28;10.80;;;3.92;;
41253;SDS011;26987;59.928;30.306;2022-09-13T07:28:57;12.55;;;5.03;;
41253;SDS011;26987;59.928;30.306;2022-09-13T07:31:28;13.57;;;6.03;;
41253;SDS011;26987;59.928;30.306;2022-09-13T07:33:57;16.55;;;5.13;;
41253;SDS011;26987;59.928;30.306;2022-09-13T07:36:27;12.25;;;4.13;;
41253;SDS011;26987;59.928;30.306;2022-09-13T07:38:57;13.45;;;4.60;;
41253;SDS011;26987;59.928;30.306;2022-09-13T07:41:27;12.25;;;3.85;;
41253;SDS011;26987;59.928;30.306;2022-09-13T07:43:56;7.78;;;4.00;;
41253;SDS011;26987;59.928;30.306;2022-09-13T07:46:26;8.75;;;4.10;;
41253;SDS011;26987;59.928;30.306;2022-09-13T07:48:57;12.82;;;3.67;;
41253;SDS011;26987;59.928;30.306;2022-09-13T07:51:27;14.77;;;4.55;;
41253;SDS011;26987;59.928;30.306;2022-09-13T07:53:57;9.68;;;4.60;;
41253;SDS011;26987;59.928;30.306;2022-09-13T07:56:27;11.70;;;4.10;;
41253;SDS011;26987;59.928;30.306;2022-09-13T07:58:57;11.90;;;4.35;;
41253;SDS011;26987;59.928;30.306;2022-09-13T08:01:28;12.88;;;4.00;;
41253;SDS011;26987;59.928;30.306;2022-09-13T08:03:57;7.47;;;4.22;;
41253;SDS011;26987;59.928;30.306;2022-09-13T08:06:27;11.77;;;4.75;;
41253;SDS011;26987;59.928;30.306;2022-09-13T08:08:56;8.52;;;4.60;;
41253;SDS011;26987;59.928;30.306;2022-09-13T08:11:24;8.93;;;4.15;;
41253;SDS011;26987;59.928;30.306;2022-09-13T08:13:54;9.70;;;4.50;;
41253;SDS011;26987;59.928;30.306;2022-09-13T08:16:23;11.18;;;4.68;;
41253;SDS011;26987;59.928;30.306;2022-09-13T08:18:54;8.52;;;4.40;;
41253;SDS011;26987;59.928;30.306;2022-09-13T08:21:23;9.48;;;3.80;;
41253;SDS011;26987;59.928;30.306;2022-09-13T08:23:55;11.13;;;4.60;;
41253;SDS011;26987;59.928;30.306;2022-09-13T08:26:25;13.02;;;4.57;;
41253;SDS011;26987;59.928;30.306;2022-09-13T08:28:54;9.68;;;4.60;;
41253;SDS011;26987;59.928;30.306;2022-09-13T08:31:24;7.88;;;4.40;;
41253;SDS011;26987;59.928;30.306;2022-09-13T08:33:54;9.55;;;4.22;;
41253;SDS011;26987;59.928;30.306;2022-09-13T08:36:22;6.93;;;4.30;;
41253;SDS011;26987;59.928;30.306;2022-09-13T08:38:51;11.38;;;4.32;;
41253;SDS011;26987;59.928;30.306;2022-09-13T08:41:32;8.20;;;4.13;;
41253;SDS011;26987;59.928;30.306;2022-09-13T08:44:25;7.45;;;3.78;;
41253;SDS011;26987;59.928;30.306;2022-09-13T08:46:57;16.88;;;5.10;;
41253;SDS011;26987;59.928;30.306;2022-09-13T08:49:33;7.25;;;3.83;;
41253;SDS011;26987;59.928;30.306;2022-09-13T08:52:04;12.15;;;4.20;;
41253;SDS011;26987;59.928;30.306;2022-09-13T08:54:43;12.23;;;4.65;;
41253;SDS011;26987;59.928;30.306;2022-09-13T08:57:12;8.02;;;4.05;;
41253;SDS011;26987;59.928;30.306;2022-09-13T08:59:46;10.18;;;4.28;;
41253;SDS011;26987;59.928;30.306;2022-09-13T09:02:29;8.07;;;3.95;;
41253;SDS011;26987;59.928;30.306;2022-09-13T09:05:23;12.43;;;4.78;;
41253;SDS011;26987;59.928;30.306;2022-09-13T09:07:55;7.38;;;4.38;;
41253;SDS011;26987;59.928;30.306;2022-09-13T09:10:26;9.40;;;3.83;;
41253;SDS011;26987;59.928;30.306;2022-09-13T09:12:58;5.68;;;3.63;;
41253;SDS011;26987;59.928;30.306;2022-09-13T09:15:29;5.03;;;3.42;;
41253;SDS011;26987;59.928;30.306;2022-09-13T09:18:03;7.07;;;3.42;;
41253;SDS011;26987;59.928;30.306;2022-09-13T09:20:40;8.15;;;3.78;;
41253;SDS011;26987;59.928;30.306;2022-09-13T09:23:12;9.00;;;3.88;;
41253;SDS011;26987;59.928;30.306;2022-09-13T09:25:43;7.72;;;3.45;;
41253;SDS011;26987;59.928;30.306;2022-09-13T09:28:11;7.22;;;3.85;;
41253;SDS011;26987;59.928;30.306;2022-09-13T09:30:42;7.68;;;3.30;;
41253;SDS011;26987;59.928;30.306;2022-09-13T09:33:26;7.78;;;2.70;;
41253;SDS011;26987;59.928;30.306;2022-09-13T09:36:15;7.50;;;3.53;;
41253;SDS011;26987;59.928;30.306;2022-09-13T09:38:49;5.93;;;3.00;;
41253;SDS011;26987;59.928;30.306;2022-09-13T09:41:20;8.57;;;3.13;;
41253;SDS011;26987;59.928;30.306;2022-09-13T09:43:55;5.75;;;3.50;;
41253;SDS011;26987;59.928;30.306;2022-09-13T09:46:32;11.02;;;3.80;;
41253;SDS011;26987;59.928;30.306;2022-09-13T09:49:05;8.88;;;3.45;;
41253;SDS011;26987;59.928;30.306;2022-09-13T09:51:56;7.10;;;2.92;;
41253;SDS011;26987;59.928;30.306;2022-09-13T09:54:26;9.02;;;3.05;;
41253;SDS011;26987;59.928;30.306;2022-09-13T09:56:56;6.25;;;3.10;;
41253;SDS011;26987;59.928;30.306;2022-09-13T09:59:25;13.90;;;3.17;;
41253;SDS011;26987;59.928;30.306;2022-09-13T10:01:54;9.70;;;3.22;;
41253;SDS011;26987;59.928;30.306;2022-09-13T10:04:23;5.05;;;3.10;;
41253;SDS011;26987;59.928;30.306;2022-09-13T10:09:52;10.23;;;2.80;;
41253;SDS011;26987;59.928;30.306;2022-09-13T10:12:25;10.05;;;2.72;;
41253;SDS011;26987;59.928;30.306;2022-09-13T10:15:02;8.52;;;2.90;;
41253;SDS011;26987;59.928;30.306;2022-09-13T10:17:31;7.32;;;2.40;;
41253;SDS011;26987;59.928;30.306;2022-09-13T10:20:00;14.20;;;2.83;;
41253;SDS011;26987;59.928;30.306;2022-09-13T10:22:31;9.55;;;3.22;;
41253;SDS011;26987;59.928;30.306;2022-09-13T10:25:21;10.32;;;2.60;;
41253;SDS011;26987;59.928;30.306;2022-09-13T10:27:50;8.50;;;2.55;;
41253;SDS011;26987;59.928;30.306;2022-09-13T10:30:28;4.90;;;2.90;;
41253;SDS011;26987;59.928;30.306;2022-09-13T10:32:59;8.07;;;2.85;;
41253;SDS011;26987;59.928;30.306;2022-09-13T10:35:28;7.78;;;2.42;;
41253;SDS011;26987;59.928;30.306;2022-09-13T10:37:56;9.15;;;3.13;;
41253;SDS011;26987;59.928;30.306;2022-09-13T10:40:27;5.65;;;2.60;;
41253;SDS011;26987;59.928;30.306;2022-09-13T10:42:59;7.55;;;2.67;;
41253;SDS011;26987;59.928;30.306;2022-09-13T10:45:30;13.60;;;2.40;;
41253;SDS011;26987;59.928;30.306;2022-09-13T10:48:01;13.10;;;2.10;;
41253;SDS011;26987;59.928;30.306;2022-09-13T10:50:36;9.50;;;2.50;;
41253;SDS011;26987;59.928;30.306;2022-09-13T10:53:04;8.48;;;3.20;;
41253;SDS011;26987;59.928;30.306;2022-09-13T10:55:59;10.05;;;2.60;;
41253;SDS011;26987;59.928;30.306;2022-09-13T10:58:28;6.68;;;2.97;;
41253;SDS011;26987;59.928;30.306;2022-09-13T11:07:06;3.50;;;1.70;;
41253;SDS011;26987;59.928;30.306;2022-09-13T11:09:44;5.43;;;1.90;;
41253;SDS011;26987;59.928;30.306;2022-09-13T11:12:23;5.57;;;1.80;;
41253;SDS011;26987;59.928;30.306;2022-09-13T11:15:00;5.07;;;1.88;;
41253;SDS011;26987;59.928;30.306;2022-09-13T11:17:51;7.10;;;1.70;;
41253;SDS011;26987;59.928;30.306;2022-09-13T11:20:37;7.25;;;1.88;;
41253;SDS011;26987;59.928;30.306;2022-09-13T11:23:18;5.05;;;2.05;;
41253;SDS011;26987;59.928;30.306;2022-09-13T11:26:05;6.53;;;2.20;;
41253;SDS011;26987;59.928;30.306;2022-09-13T11:31:39;5.72;;;2.25;;
41253;SDS011;26987;59.928;30.306;2022-09-13T11:34:19;6.10;;;2.38;;
41253;SDS011;26987;59.928;30.306;2022-09-13T11:37:07;7.07;;;2.15;;
41253;SDS011;26987;59.928;30.306;2022-09-13T11:39:53;3.95;;;1.67;;
41253;SDS011;26987;59.928;30.306;2022-09-13T11:42:33;6.93;;;2.10;;
41253;SDS011;26987;59.928;30.306;2022-09-13T11:45:22;3.72;;;1.60;;
41253;SDS011;26987;59.928;30.306;2022-09-13T11:47:58;8.18;;;1.73;;
41253;SDS011;26987;59.928;30.306;2022-09-13T11:50:55;5.95;;;1.73;;
41253;SDS011;26987;59.928;30.306;2022-09-13T11:56:18;4.55;;;1.98;;
41253;SDS011;26987;59.928;30.306;2022-09-13T11:58:51;6.88;;;1.90;;
41253;SDS011;26987;59.928;30.306;2022-09-13T12:01:24;6.25;;;2.60;;
41253;SDS011;26987;59.928;30.306;2022-09-13T12:03:56;8.43;;;2.05;;
41253;SDS011;26987;59.928;30.306;2022-09-13T12:06:29;9.00;;;1.85;;
41253;SDS011;26987;59.928;30.306;2022-09-13T12:09:01;9.98;;;1.92;;
41253;SDS011;26987;59.928;30.306;2022-09-13T12:11:34;6.25;;;2.13;;
41253;SDS011;26987;59.928;30.306;2022-09-13T12:14:05;4.45;;;1.83;;
41253;SDS011;26987;59.928;30.306;2022-09-13T12:16:40;10.95;;;1.80;;
41253;SDS011;26987;59.928;30.306;2022-09-13T12:19:12;9.25;;;2.20;;
41253;SDS011;26987;59.928;30.306;2022-09-13T12:21:44;9.90;;;1.85;;
41253;SDS011;26987;59.928;30.306;2022-09-13T12:24:15;4.70;;;1.50;;
41253;SDS011;26987;59.928;30.306;2022-09-13T12:26:47;5.72;;;1.80;;
41253;SDS011;26987;59.928;30.306;2022-09-13T12:29:21;3.30;;;1.90;;
41253;SDS011;26987;59.928;30.306;2022-09-13T12:32:01;5.80;;;1.88;;
41253;SDS011;26987;59.928;30.306;2022-09-13T12:34:32;8.05;;;1.85;;
41253;SDS011;26987;59.928;30.306;2022-09-13T12:37:16;6.65;;;2.15;;
41253;SDS011;26987;59.928;30.306;2022-09-13T12:40:28;6.35;;;1.88;;
41253;SDS011;26987;59.928;30.306;2022-09-13T12:43:14;4.93;;;1.80;;
41253;SDS011;26987;59.928;30.306;2022-09-13T12:46:16;7.18;;;1.83;;
41253;SDS011;26987;59.928;30.306;2022-09-13T12:49:20;4.10;;;1.60;;
41253;SDS011;26987;59.928;30.306;2022-09-13T12:52:02;4.72;;;1.92;;
41253;SDS011;26987;59.928;30.306;2022-09-13T12:54:53;10.18;;;2.17;;
41253;SDS011;26987;59.928;30.306;2022-09-13T12:57:57;10.18;;;2.33;;
41253;SDS011;26987;59.928;30.306;2022-09-13T13:00:37;4.97;;;2.67;;
41253;SDS011;26987;59.928;30.306;2022-09-13T13:03:12;13.95;;;3.30;;
41253;SDS011;26987;59.928;30.306;2022-09-13T13:05:44;6.55;;;2.28;;
41253;SDS011;26987;59.928;30.306;2022-09-13T13:08:22;6.05;;;2.45;;
41253;SDS011;26987;59.928;30.306;2022-09-13T13:11:04;7.47;;;2.00;;
41253;SDS011;26987;59.928;30.306;2022-09-13T13:13:36;12.27;;;3.90;;
41253;SDS011;26987;59.928;30.306;2022-09-13T13:16:20;7.63;;;4.18;;
41253;SDS011;26987;59.928;30.306;2022-09-13T13:18:50;7.30;;;2.55;;
41253;SDS011;26987;59.928;30.306;2022-09-13T13:21:26;7.68;;;2.05;;
41253;SDS011;26987;59.928;30.306;2022-09-13T13:33:17;10.88;;;2.97;;
41253;SDS011;26987;59.928;30.306;2022-09-13T13:35:46;6.25;;;2.40;;
41253;SDS011;26987;59.928;30.306;2022-09-13T13:38:19;7.20;;;2.28;;
41253;SDS011;26987;59.928;30.306;2022-09-13T13:41:04;12.80;;;2.58;;
41253;SDS011;26987;59.928;30.306;2022-09-13T13:43:34;9.82;;;3.55;;
41253;SDS011;26987;59.928;30.306;2022-09-13T13:48:54;10.00;;;2.20;;
41253;SDS011;26987;59.928;30.306;2022-09-13T13:51:23;7.43;;;2.10;;
41253;SDS011;26987;59.928;30.306;2022-09-13T13:53:55;6.07;;;2.47;;
41253;SDS011;26987;59.928;30.306;2022-09-13T13:56:31;6.13;;;2.27;;
41253;SDS011;26987;59.928;30.306;2022-09-13T13:59:03;7.90;;;2.78;;
41253;SDS011;26987;59.928;30.306;2022-09-13T14:01:42;7.30;;;2.60;;
41253;SDS011;26987;59.928;30.306;2022-09-13T14:10:39;11.07;;;2.72;;
41253;SDS011;26987;59.928;30.306;2022-09-13T14:13:23;4.35;;;2.35;;
41253;SDS011;26987;59.928;30.306;2022-09-13T14:16:13;4.93;;;1.95;;
41253;SDS011;26987;59.928;30.306;2022-09-13T14:19:00;8.57;;;2.25;;
41253;SDS011;26987;59.928;30.306;2022-09-13T14:21:45;12.48;;;3.20;;
41253;SDS011;26987;59.928;30.306;2022-09-13T14:24:16;6.63;;;2.25;;
41253;SDS011;26987;59.928;30.306;2022-09-13T14:26:47;8.85;;;2.35;;
41253;SDS011;26987;59.928;30.306;2022-09-13T14:29:17;6.47;;;2.65;;
41253;SDS011;26987;59.928;30.306;2022-09-13T14:31:46;10.32;;;2.30;;
41253;SDS011;26987;59.928;30.306;2022-09-13T14:34:20;5.47;;;2.00;;
41253;SDS011;26987;59.928;30.306;2022-09-13T14:36:52;6.03;;;1.85;;
41253;SDS011;26987;59.928;30.306;2022-09-13T14:39:21;7.75;;;2.13;;
41253;SDS011;26987;59.928;30.306;2022-09-13T14:41:58;12.52;;;2.00;;
41253;SDS011;26987;59.928;30.306;2022-09-13T14:44:27;10.02;;;2.30;;
41253;SDS011;26987;59.928;30.306;2022-09-13T14:47:03;6.22;;;2.72;;
41253;SDS011;26987;59.928;30.306;2022-09-13T14:49:34;4.10;;;1.95;;
41253;SDS011;26987;59.928;30.306;2022-09-13T14:52:07;3.60;;;1.95;;
41253;SDS011;26987;59.928;30.306;2022-09-13T14:54:42;10.85;;;2.90;;
41253;SDS011;26987;59.928;30.306;2022-09-13T14:57:17;9.38;;;5.00;;
41253;SDS011;26987;59.928;30.306;2022-09-13T14:59:51;14.35;;;7.40;;
41253;SDS011;26987;59.928;30.306;2022-09-13T15:02:23;12.02;;;3.45;;
41253;SDS011;26987;59.928;30.306;2022-09-13T15:04:53;10.88;;;3.47;;
41253;SDS011;26987;59.928;30.306;2022-09-13T15:07:27;5.00;;;1.83;;
41253;SDS011;26987;59.928;30.306;2022-09-13T15:09:57;7.13;;;1.75;;
41253;SDS011;26987;59.928;30.306;2022-09-13T15:12:35;7.75;;;3.15;;
41253;SDS011;26987;59.928;30.306;2022-09-13T15:15:18;7.70;;;1.88;;
41253;SDS011;26987;59.928;30.306;2022-09-13T15:17:52;6.40;;;2.00;;
41253;SDS011;26987;59.928;30.306;2022-09-13T15:20:21;5.55;;;2.10;;
41253;SDS011;26987;59.928;30.306;2022-09-13T15:22:51;9.85;;;1.90;;
41253;SDS011;26987;59.928;30.306;2022-09-13T15:25:20;3.83;;;2.05;;
41253;SDS011;26987;59.928;30.306;2022-09-13T15:27:53;7.10;;;1.63;;
41253;SDS011;26987;59.928;30.306;2022-09-13T15:30:23;5.80;;;1.60;;
41253;SDS011;26987;59.928;30.306;2022-09-13T15:33:03;8.13;;;1.98;;
41253;SDS011;26987;59.928;30.306;2022-09-13T15:35:35;5.25;;;2.40;;
41253;SDS011;26987;59.928;30.306;2022-09-13T15:38:14;6.43;;;1.88;;
41253;SDS011;26987;59.928;30.306;2022-09-13T15:40:57;10.18;;;2.03;;
41253;SDS011;26987;59.928;30.306;2022-09-13T15:43:28;4.70;;;2.22;;
41253;SDS011;26987;59.928;30.306;2022-09-13T15:45:57;8.07;;;2.40;;